createdAt,value
2018-11-26T00:00:21.839Z,7.60
2018-11-26T00:02:51.102Z,7.50
2018-11-26T00:05:19.920Z,7.50
2018-11-26T00:07:48.712Z,7.50
2018-11-26T00:10:28.423Z,7.50
2018-11-26T00:12:57.325Z,7.40
2018-11-26T00:15:26.287Z,7.40
2018-11-26T00:17:55.323Z,7.50
2018-11-26T00:20:24.168Z,7.40
2018-11-26T00:22:53.080Z,7.50
2018-11-26T00:25:21.956Z,7.40
2018-11-26T00:27:50.757Z,7.40
2018-11-26T00:30:19.651Z,7.30
2018-11-26T00:32:48.566Z,7.40
2018-11-26T00:35:17.483Z,7.40
2018-11-26T00:37:46.349Z,7.40
2018-11-26T00:40:15.162Z,7.40
2018-11-26T00:42:43.978Z,7.40
2018-11-26T00:45:13.095Z,7.50
2018-11-26T00:47:41.889Z,7.40
2018-11-26T00:50:11.319Z,7.50
2018-11-26T00:52:41.005Z,7.50
2018-11-26T00:55:11.094Z,7.50
2018-11-26T00:57:40.014Z,7.40
2018-11-26T01:00:11.606Z,7.30
2018-11-26T01:02:40.480Z,7.30
2018-11-26T01:05:14.262Z,7.20
2018-11-26T01:07:43.090Z,7.20
2018-11-26T01:10:11.901Z,7.30
2018-11-26T01:12:40.838Z,7.30
2018-11-26T01:15:09.699Z,7.30
2018-11-26T01:17:38.531Z,7.30
2018-11-26T01:20:07.395Z,7.30
2018-11-26T01:22:36.232Z,7.30
2018-11-26T01:25:05.075Z,7.30
2018-11-26T01:27:33.883Z,7.20
2018-11-26T01:30:02.589Z,7.30
2018-11-26T01:32:31.376Z,7.20
2018-11-26T01:35:00.209Z,7.30
2018-11-26T01:37:29.006Z,7.30
2018-11-26T01:39:57.905Z,7.20
2018-11-26T01:42:26.703Z,7.30
2018-11-26T01:44:55.493Z,7.20
2018-11-26T01:47:24.248Z,7.20
2018-11-26T01:49:53.077Z,7.10
2018-11-26T01:52:21.822Z,7.20
2018-11-26T01:54:50.734Z,7.30
2018-11-26T01:57:19.625Z,7.30
2018-11-26T01:59:48.450Z,7.30
2018-11-26T02:02:17.264Z,7.20
2018-11-26T02:04:46.146Z,7.20
2018-11-26T02:07:14.917Z,7.20
2018-11-26T02:09:43.794Z,7.20
2018-11-26T02:12:12.620Z,7.10
2018-11-26T02:14:43.967Z,7.20
2018-11-26T02:17:13.509Z,7.20
2018-11-26T02:19:43.042Z,7.20
2018-11-26T02:22:12.494Z,7.10
2018-11-26T02:24:41.809Z,7.10
2018-11-26T02:27:12.147Z,7.10
2018-11-26T02:29:41.704Z,7.10
2018-11-26T02:32:11.228Z,7.10
2018-11-26T02:34:40.815Z,7.20
2018-11-26T02:37:09.710Z,7.20
2018-11-26T02:39:38.525Z,7.20
2018-11-26T02:42:07.379Z,7.20
2018-11-26T02:44:36.193Z,7.10
2018-11-26T02:47:05.080Z,7.20
2018-11-26T02:49:33.948Z,7.30
2018-11-26T02:52:02.746Z,7.20
2018-11-26T02:54:31.491Z,7.20
2018-11-26T02:57:00.338Z,7.20
2018-11-26T02:59:29.074Z,7.10
2018-11-26T03:01:57.890Z,7.10
2018-11-26T03:04:26.666Z,7.10
2018-11-26T03:06:55.438Z,7.20
2018-11-26T03:09:24.276Z,7.20
2018-11-26T03:11:53.226Z,7.20
2018-11-26T03:14:22.034Z,7.20
2018-11-26T03:16:50.950Z,7.30
2018-11-26T03:19:19.753Z,7.30
2018-11-26T03:21:48.684Z,7.20
2018-11-26T03:24:17.495Z,7.20
2018-11-26T03:26:46.342Z,7.20
2018-11-26T03:29:15.178Z,7.30
2018-11-26T03:31:44.039Z,7.30
2018-11-26T03:34:12.910Z,7.20
2018-11-26T03:36:41.759Z,7.20
2018-11-26T03:39:10.664Z,7.20
2018-11-26T03:41:39.455Z,7.20
2018-11-26T03:44:08.230Z,7.30
2018-11-26T03:46:37.019Z,7.30
2018-11-26T03:49:06.065Z,7.30
2018-11-26T03:51:34.938Z,7.30
2018-11-26T03:54:03.824Z,7.20
2018-11-26T03:56:32.706Z,7.20
2018-11-26T03:59:01.880Z,7.20
2018-11-26T04:01:30.707Z,7.20
2018-11-26T04:03:59.494Z,7.20
2018-11-26T04:06:28.324Z,7.20
2018-11-26T04:08:57.370Z,7.20
2018-11-26T04:11:26.185Z,7.10
2018-11-26T04:13:55.027Z,7.10
2018-11-26T04:16:23.859Z,7.10
2018-11-26T04:18:52.661Z,7.10
2018-11-26T04:21:21.500Z,7.10
2018-11-26T04:23:50.267Z,7.00
2018-11-26T04:26:18.999Z,7.10
2018-11-26T04:28:47.866Z,7.10
2018-11-26T04:31:16.613Z,7.00
2018-11-26T04:33:45.612Z,7.10
2018-11-26T04:36:14.459Z,7.10
2018-11-26T04:38:43.766Z,7.10
2018-11-26T04:41:12.594Z,7.10
2018-11-26T04:43:41.408Z,7.10
2018-11-26T04:46:10.212Z,7.10
2018-11-26T04:48:39.070Z,7.10
2018-11-26T04:51:07.913Z,7.00
2018-11-26T04:53:36.758Z,7.10
2018-11-26T04:56:05.868Z,7.00
2018-11-26T04:58:34.693Z,7.00
2018-11-26T05:01:03.563Z,7.00
2018-11-26T05:03:32.448Z,7.00
2018-11-26T05:06:01.316Z,7.00
2018-11-26T05:08:30.094Z,7.00
2018-11-26T05:10:59.928Z,7.00
2018-11-26T05:13:29.457Z,7.00
2018-11-26T05:15:58.382Z,7.00
2018-11-26T05:18:27.418Z,7.00
2018-11-26T05:20:56.300Z,6.90
2018-11-26T05:23:25.315Z,6.90
2018-11-26T05:25:54.616Z,7.00
2018-11-26T05:28:23.434Z,6.90
2018-11-26T05:30:52.385Z,6.90
2018-11-26T05:33:21.365Z,6.80
2018-11-26T05:35:50.947Z,6.80
2018-11-26T05:38:20.191Z,6.80
2018-11-26T05:40:49.032Z,6.80
2018-11-26T05:43:17.811Z,6.80
2018-11-26T05:45:46.898Z,6.80
2018-11-26T05:48:15.697Z,6.80
2018-11-26T05:50:44.579Z,6.80
2018-11-26T05:53:13.327Z,6.70
2018-11-26T05:55:42.206Z,6.60
2018-11-26T05:58:11.110Z,6.70
2018-11-26T06:00:39.942Z,6.70
2018-11-26T06:03:08.764Z,6.70
2018-11-26T06:05:37.836Z,6.70
2018-11-26T06:08:06.681Z,6.70
2018-11-26T06:10:35.556Z,6.70
2018-11-26T06:13:04.445Z,6.70
2018-11-26T06:15:33.364Z,6.60
2018-11-26T06:18:02.311Z,6.70
2018-11-26T06:20:31.234Z,6.70
2018-11-26T06:23:00.227Z,6.70
2018-11-26T06:25:29.182Z,6.70
2018-11-26T06:27:58.053Z,6.60
2018-11-26T06:30:49.108Z,6.60
2018-11-26T06:33:20.817Z,6.60
2018-11-26T06:35:49.802Z,6.60
2018-11-26T06:38:19.308Z,6.60
2018-11-26T06:40:48.118Z,6.60
2018-11-26T06:43:17.467Z,6.60
2018-11-26T06:45:46.070Z,6.50
2018-11-26T06:48:14.879Z,6.60
2018-11-26T06:50:43.686Z,6.60
2018-11-26T06:53:18.814Z,6.60
2018-11-26T06:55:47.826Z,6.60
2018-11-26T06:58:16.602Z,6.60
2018-11-26T07:00:45.476Z,6.70
2018-11-26T07:03:14.225Z,6.70
2018-11-26T07:05:43.156Z,6.70
2018-11-26T07:08:12.019Z,6.80
2018-11-26T07:10:40.867Z,6.70
2018-11-26T07:13:09.710Z,6.70
2018-11-26T07:15:39.227Z,6.70
2018-11-26T07:18:08.846Z,6.80
2018-11-26T07:20:37.718Z,6.80
2018-11-26T07:23:06.625Z,6.80
2018-11-26T07:25:35.523Z,6.80
2018-11-26T07:28:06.841Z,6.80
2018-11-26T07:30:35.843Z,6.80
2018-11-26T07:33:05.353Z,6.70
2018-11-26T07:35:34.420Z,6.70
2018-11-26T07:38:03.322Z,6.80
2018-11-26T07:40:32.346Z,6.70
2018-11-26T07:43:06.598Z,6.80
2018-11-26T07:45:35.593Z,6.80
2018-11-26T07:48:04.721Z,6.80
2018-11-26T07:50:35.501Z,6.90
2018-11-26T07:53:04.756Z,6.90
2018-11-26T07:55:33.784Z,6.90
2018-11-26T07:58:02.873Z,6.90
2018-11-26T08:00:33.005Z,6.80
2018-11-26T08:03:02.044Z,6.80
2018-11-26T08:05:32.197Z,6.70
2018-11-26T08:08:02.380Z,6.90
2018-11-26T08:10:31.864Z,6.80
2018-11-26T08:13:00.963Z,6.90
2018-11-26T08:15:30.340Z,6.80
2018-11-26T08:17:59.512Z,6.90
2018-11-26T08:20:28.595Z,7.00
2018-11-26T08:22:58.015Z,7.00
2018-11-26T08:25:27.037Z,6.90
2018-11-26T08:27:56.010Z,6.90
2018-11-26T08:30:26.961Z,6.90
2018-11-26T08:32:57.889Z,6.90
2018-11-26T08:35:27.703Z,6.90
2018-11-26T08:38:01.754Z,6.90
2018-11-26T08:40:35.138Z,7.00
2018-11-26T08:43:07.340Z,7.00
2018-11-26T08:45:37.679Z,7.00
2018-11-26T08:48:12.387Z,7.00
2018-11-26T08:50:42.420Z,7.00
2018-11-26T08:53:11.601Z,7.00
2018-11-26T08:55:40.813Z,7.10
2018-11-26T08:58:10.831Z,7.10
2018-11-26T09:00:41.736Z,7.10
2018-11-26T09:03:20.491Z,7.10
2018-11-26T09:05:54.895Z,7.00
2018-11-26T09:08:23.758Z,7.10
2018-11-26T09:10:56.441Z,7.10
2018-11-26T09:13:25.420Z,7.20
2018-11-26T09:15:54.607Z,7.20
2018-11-26T09:18:24.635Z,7.10
2018-11-26T09:20:53.701Z,7.20
2018-11-26T09:23:22.761Z,7.20
2018-11-26T09:25:55.178Z,7.10
2018-11-26T09:28:26.320Z,7.20
2018-11-26T09:30:55.376Z,7.10
2018-11-26T09:33:24.389Z,7.20
2018-11-26T09:35:53.285Z,7.30
2018-11-26T09:38:22.351Z,7.30
2018-11-26T09:40:51.389Z,7.10
2018-11-26T09:43:20.263Z,7.30
2018-11-26T09:45:49.287Z,7.30
2018-11-26T09:48:18.254Z,7.30
2018-11-26T09:50:47.330Z,7.30
2018-11-26T09:53:16.501Z,7.30
2018-11-26T09:55:45.398Z,7.30
2018-11-26T09:58:14.436Z,7.30
2018-11-26T10:00:43.351Z,7.40
2018-11-26T10:03:12.467Z,7.40
2018-11-26T10:05:41.304Z,7.30
2018-11-26T10:08:10.210Z,7.40
2018-11-26T10:10:39.086Z,7.40
2018-11-26T10:13:08.226Z,7.50
2018-11-26T10:15:37.209Z,7.50
2018-11-26T10:18:06.337Z,7.50
2018-11-26T10:20:36.682Z,7.40
2018-11-26T10:23:06.380Z,7.50
2018-11-26T10:25:35.388Z,7.60
2018-11-26T10:28:04.481Z,7.60
2018-11-26T10:30:33.320Z,7.60
2018-11-26T10:33:02.559Z,7.70
2018-11-26T10:35:31.778Z,7.60
2018-11-26T10:38:01.468Z,7.50
2018-11-26T10:40:30.842Z,7.50
2018-11-26T10:42:59.817Z,7.50
2018-11-26T10:45:28.821Z,7.60
2018-11-26T10:47:57.916Z,7.50
2018-11-26T10:50:27.342Z,7.60
2018-11-26T10:52:57.665Z,7.60
2018-11-26T10:55:29.348Z,7.50
2018-11-26T10:57:58.450Z,7.60
2018-11-26T11:00:32.848Z,7.60
2018-11-26T11:03:01.962Z,7.50
2018-11-26T11:05:31.006Z,7.50
2018-11-26T11:08:00.119Z,7.60
2018-11-26T11:10:30.332Z,7.50
2018-11-26T11:12:59.434Z,7.50
2018-11-26T11:15:28.463Z,7.40
2018-11-26T11:17:57.522Z,7.40
2018-11-26T11:20:27.932Z,7.40
2018-11-26T11:22:56.832Z,7.50
2018-11-26T11:25:26.229Z,7.50
2018-11-26T11:27:56.318Z,7.40
2018-11-26T11:30:26.733Z,7.40
2018-11-26T11:32:55.773Z,7.40
2018-11-26T11:35:24.625Z,7.50
2018-11-26T11:37:54.291Z,7.50
2018-11-26T11:40:31.823Z,7.50
2018-11-26T11:43:01.325Z,7.40
2018-11-26T11:45:31.333Z,7.50
2018-11-26T11:48:00.433Z,7.40
2018-11-26T11:50:29.495Z,7.40
2018-11-26T11:52:59.391Z,7.00
2018-11-26T11:55:28.454Z,7.50
2018-11-26T11:57:57.420Z,7.40
2018-11-26T12:00:38.985Z,7.50
2018-11-26T12:03:09.206Z,7.40
2018-11-26T12:05:38.197Z,7.40
2018-11-26T12:08:08.136Z,7.30
2018-11-26T12:10:37.717Z,7.30
2018-11-26T12:13:08.545Z,7.30
2018-11-26T12:15:39.817Z,7.40
2018-11-26T12:18:09.279Z,7.40
2018-11-26T12:20:39.185Z,7.40
2018-11-26T12:23:08.843Z,7.50
2018-11-26T12:25:38.006Z,7.50
2018-11-26T12:28:07.407Z,7.50
2018-11-26T12:30:38.615Z,7.50
2018-11-26T12:33:07.743Z,7.50
2018-11-26T12:35:39.533Z,7.60
2018-11-26T12:38:09.627Z,7.60
2018-11-26T12:40:38.908Z,7.70
2018-11-26T12:43:08.585Z,7.60
2018-11-26T12:45:40.789Z,7.50
2018-11-26T12:48:10.432Z,7.50
2018-11-26T12:50:40.043Z,7.60
2018-11-26T12:53:09.571Z,7.60
2018-11-26T12:55:44.029Z,7.60
2018-11-26T12:58:13.084Z,7.50
2018-11-26T13:00:42.695Z,7.50
2018-11-26T13:03:13.642Z,7.60
2018-11-26T13:05:42.631Z,7.60
2018-11-26T13:08:11.777Z,7.60
2018-11-26T13:10:40.747Z,7.60
2018-11-26T13:13:10.754Z,7.60
2018-11-26T13:15:39.715Z,7.50
2018-11-26T13:18:11.546Z,7.50
2018-11-26T13:20:40.666Z,7.50
2018-11-26T13:23:11.372Z,7.50
2018-11-26T13:25:42.101Z,7.60
2018-11-26T13:28:11.916Z,7.50
2018-11-26T13:30:46.356Z,7.50
2018-11-26T13:33:17.164Z,7.50
2018-11-26T13:35:47.098Z,7.40
2018-11-26T13:38:16.129Z,7.30
2018-11-26T13:40:45.081Z,7.30
2018-11-26T13:43:17.175Z,7.20
2018-11-26T13:45:47.476Z,7.30
2018-11-26T13:48:17.907Z,7.30
2018-11-26T13:50:53.650Z,7.30
2018-11-26T13:53:22.674Z,7.30
2018-11-26T13:55:52.146Z,7.20
2018-11-26T13:58:21.726Z,7.30
2018-11-26T14:00:50.767Z,7.20
2018-11-26T14:03:19.741Z,7.10
2018-11-26T14:05:49.616Z,7.10
2018-11-26T14:08:19.993Z,7.10
2018-11-26T14:10:50.856Z,7.10
2018-11-26T14:13:22.305Z,7.00
2018-11-26T14:15:52.492Z,7.00
2018-11-26T14:18:21.780Z,6.90
2018-11-26T14:20:51.074Z,7.00
2018-11-26T14:23:20.183Z,7.00
2018-11-26T14:25:49.575Z,7.00
2018-11-26T14:28:18.748Z,7.00
2018-11-26T14:30:47.711Z,7.00
2018-11-26T14:33:18.021Z,7.00
2018-11-26T14:35:49.017Z,7.10
2018-11-26T14:38:19.958Z,7.00
2018-11-26T14:40:52.499Z,7.00
2018-11-26T14:43:21.588Z,7.00
2018-11-26T14:45:50.620Z,6.90
2018-11-26T14:48:19.967Z,6.90
2018-11-26T14:50:49.178Z,6.90
2018-11-26T14:53:18.377Z,6.80
2018-11-26T14:55:47.509Z,7.00
2018-11-26T14:58:17.517Z,6.90
2018-11-26T15:00:49.517Z,6.90
2018-11-26T15:06:11.124Z,7.00
2018-11-26T15:08:40.364Z,6.90
2018-11-26T15:11:09.741Z,6.90
2018-11-26T15:13:38.805Z,6.90
2018-11-26T15:16:08.019Z,6.90
2018-11-26T15:18:37.007Z,6.90
2018-11-26T15:21:06.281Z,6.80
2018-11-26T15:23:46.842Z,6.80
2018-11-26T15:26:15.767Z,6.80
2018-11-26T15:28:44.920Z,6.80
2018-11-26T15:31:14.026Z,6.80
2018-11-26T15:33:43.369Z,6.90
2018-11-26T15:36:12.978Z,6.80
2018-11-26T15:38:42.375Z,6.70
2018-11-26T15:41:11.531Z,6.80
2018-11-26T15:43:40.832Z,6.80
2018-11-26T15:46:10.146Z,6.70
2018-11-26T15:48:39.532Z,6.70
2018-11-26T15:51:08.664Z,6.70
2018-11-26T15:53:37.540Z,6.70
2018-11-26T15:56:06.661Z,6.70
2018-11-26T15:58:35.627Z,6.80
2018-11-26T16:01:04.714Z,6.70
2018-11-26T16:03:33.798Z,6.70
2018-11-26T16:06:02.889Z,6.70
2018-11-26T16:08:31.854Z,6.70
2018-11-26T16:11:00.751Z,6.60
2018-11-26T16:13:29.789Z,6.70
2018-11-26T16:15:58.955Z,6.70
2018-11-26T16:18:28.114Z,6.70
2018-11-26T16:20:57.011Z,6.70
2018-11-26T16:23:26.020Z,6.80
2018-11-26T16:25:54.968Z,6.80
2018-11-26T16:28:24.462Z,6.70
2018-11-26T16:30:53.538Z,6.70
2018-11-26T16:33:22.510Z,6.80
2018-11-26T16:35:51.458Z,6.90
2018-11-26T16:38:20.507Z,6.90
2018-11-26T16:40:49.553Z,6.80
2018-11-26T16:43:18.591Z,6.90
2018-11-26T16:45:47.524Z,6.90
2018-11-26T16:48:16.500Z,6.90
2018-11-26T16:50:45.522Z,6.90
2018-11-26T16:53:19.239Z,6.80
2018-11-26T16:55:44.066Z,6.90
2018-11-26T16:58:13.684Z,6.80
2018-11-26T17:00:42.855Z,6.90
2018-11-26T17:03:12.006Z,6.90
2018-11-26T17:05:42.331Z,6.80
2018-11-26T17:08:15.691Z,6.80
2018-11-26T17:10:46.409Z,7.00
2018-11-26T17:13:15.515Z,7.00
2018-11-26T17:15:44.482Z,6.90
2018-11-26T17:18:13.490Z,6.90
2018-11-26T17:20:42.384Z,6.80
2018-11-26T17:23:11.273Z,6.80
2018-11-26T17:25:40.243Z,6.80
2018-11-26T17:28:09.193Z,6.80
2018-11-26T17:30:39.154Z,6.90
2018-11-26T17:33:09.848Z,7.00
2018-11-26T17:35:38.658Z,6.90
2018-11-26T17:38:07.844Z,6.80
2018-11-26T17:40:37.356Z,6.90
2018-11-26T17:43:07.287Z,6.80
2018-11-26T17:45:36.204Z,6.90
2018-11-26T17:48:05.510Z,6.80
2018-11-26T17:50:37.856Z,6.90
2018-11-26T17:53:09.339Z,6.90
2018-11-26T17:55:45.448Z,6.90
2018-11-26T17:58:14.290Z,6.90
2018-11-26T18:00:43.448Z,6.90
2018-11-26T18:03:14.226Z,6.80
2018-11-26T18:05:43.224Z,6.80
2018-11-26T18:08:14.774Z,6.70
2018-11-26T18:10:44.071Z,6.90
2018-11-26T18:13:13.369Z,6.80
2018-11-26T18:15:42.374Z,6.90
2018-11-26T18:18:13.584Z,7.00
2018-11-26T18:20:43.133Z,6.90
2018-11-26T18:23:12.571Z,6.90
2018-11-26T18:25:42.030Z,6.90
2018-11-26T18:28:13.889Z,7.00
2018-11-26T18:30:47.009Z,7.10
2018-11-26T18:33:16.051Z,6.90
2018-11-26T18:35:46.679Z,6.90
2018-11-26T18:38:15.829Z,6.90
2018-11-26T18:40:46.603Z,7.00
2018-11-26T18:43:16.320Z,7.00
2018-11-26T18:45:45.405Z,7.10
2018-11-26T18:48:16.056Z,7.10
2018-11-26T18:50:45.349Z,7.00
2018-11-26T18:53:14.483Z,7.00
2018-11-26T18:55:43.899Z,6.90
2018-11-26T18:58:13.371Z,7.00
2018-11-26T19:00:45.560Z,7.00
2018-11-26T19:03:20.756Z,7.00
2018-11-26T19:05:51.703Z,7.00
2018-11-26T19:08:20.759Z,7.00
2018-11-26T19:10:52.553Z,7.00
2018-11-26T19:13:23.392Z,7.00
2018-11-26T19:15:54.250Z,7.00
2018-11-26T19:18:26.968Z,6.90
2018-11-26T19:20:56.078Z,6.90
2018-11-26T19:23:25.097Z,6.80
2018-11-26T19:25:54.556Z,6.90
2018-11-26T19:28:23.610Z,6.90
2018-11-26T19:30:52.724Z,6.90
2018-11-26T19:33:21.680Z,6.90
2018-11-26T19:35:50.708Z,6.80
2018-11-26T19:38:20.158Z,6.80
2018-11-26T19:40:49.619Z,6.80
2018-11-26T19:43:19.329Z,6.70
2018-11-26T19:45:48.866Z,6.70
2018-11-26T19:48:18.299Z,6.70
2018-11-26T19:50:47.865Z,6.60
2018-11-26T19:53:16.880Z,6.60
2018-11-26T19:55:45.972Z,6.50
2018-11-26T19:58:14.900Z,6.60
2018-11-26T20:00:43.699Z,6.50
2018-11-26T20:03:18.704Z,6.50
2018-11-26T20:06:12.145Z,6.50
2018-11-26T20:08:41.856Z,6.50
2018-11-26T20:11:11.559Z,6.50
2018-11-26T20:13:40.883Z,6.40
2018-11-26T20:16:22.211Z,6.40
2018-11-26T20:18:51.372Z,6.40
2018-11-26T20:21:20.564Z,6.40
2018-11-26T20:23:49.435Z,6.40
2018-11-26T20:26:18.431Z,6.40
2018-11-26T20:28:47.415Z,6.40
2018-11-26T20:31:16.285Z,6.40
2018-11-26T20:33:45.291Z,6.40
2018-11-26T20:36:15.225Z,6.40
2018-11-26T20:38:44.373Z,6.30
2018-11-26T20:41:14.071Z,6.40
2018-11-26T20:43:42.947Z,6.30
2018-11-26T20:46:12.272Z,6.30
2018-11-26T20:48:41.596Z,6.30
2018-11-26T20:51:10.503Z,6.30
2018-11-26T20:53:39.690Z,6.20
2018-11-26T20:56:18.393Z,6.30
2018-11-26T20:58:47.726Z,6.30
2018-11-26T21:01:16.761Z,6.30
2018-11-26T21:03:45.648Z,6.30
2018-11-26T21:06:15.013Z,6.30
2018-11-26T21:08:43.972Z,6.20
2018-11-26T21:11:13.197Z,6.20
2018-11-26T21:13:42.093Z,6.30
2018-11-26T21:16:11.048Z,6.10
2018-11-26T21:18:39.931Z,6.30
2018-11-26T21:21:09.101Z,6.30
2018-11-26T21:23:38.002Z,6.30
2018-11-26T21:26:08.250Z,6.40
2018-11-26T21:28:37.139Z,6.30
2018-11-26T21:31:06.455Z,6.20
2018-11-26T21:33:35.361Z,6.20
2018-11-26T21:36:04.214Z,6.10
2018-11-26T21:38:34.202Z,6.10
2018-11-26T21:41:03.167Z,6.20
2018-11-26T21:43:33.081Z,6.20
2018-11-26T21:46:02.616Z,6.20
2018-11-26T21:48:31.525Z,6.20
2018-11-26T21:51:01.629Z,6.10
2018-11-26T21:53:30.490Z,6.10
2018-11-26T21:55:59.418Z,6.20
2018-11-26T21:58:29.768Z,6.10
2018-11-26T22:00:59.863Z,6.10
2018-11-26T22:03:30.607Z,6.10
2018-11-26T22:05:57.671Z,6.10
2018-11-26T22:08:26.490Z,6.10
2018-11-26T22:10:55.823Z,6.20
2018-11-26T22:13:24.968Z,6.10
2018-11-26T22:15:53.858Z,6.20
2018-11-26T22:18:22.747Z,6.20
2018-11-26T22:20:51.631Z,6.10
2018-11-26T22:23:20.538Z,6.10
2018-11-26T22:25:49.377Z,6.10
2018-11-26T22:28:18.267Z,6.10
2018-11-26T22:30:47.199Z,6.20
2018-11-26T22:33:16.093Z,6.10
2018-11-26T22:35:44.945Z,6.20
2018-11-26T22:38:14.380Z,6.10
2018-11-26T22:40:43.227Z,6.00
2018-11-26T22:43:12.063Z,6.10
2018-11-26T22:45:40.956Z,6.00
2018-11-26T22:48:12.858Z,6.00
2018-11-26T22:50:42.927Z,6.10
2018-11-26T22:53:11.904Z,6.00
2018-11-26T22:55:40.913Z,6.10
2018-11-26T22:58:12.532Z,6.20
2018-11-26T23:00:59.165Z,6.20
2018-11-26T23:03:28.174Z,6.10
2018-11-26T23:05:56.975Z,6.00
2018-11-26T23:08:25.768Z,6.10
2018-11-26T23:10:54.584Z,6.10
2018-11-26T23:13:23.432Z,6.00
2018-11-26T23:15:52.259Z,6.10
2018-11-26T23:18:21.098Z,6.10
2018-11-26T23:20:49.896Z,6.20
2018-11-26T23:23:18.821Z,6.30
2018-11-26T23:25:47.919Z,6.10
2018-11-26T23:28:16.763Z,6.10
2018-11-26T23:30:45.545Z,6.00
2018-11-26T23:33:14.420Z,6.20
2018-11-26T23:35:43.287Z,6.00
2018-11-26T23:38:12.161Z,6.20
2018-11-26T23:40:41.061Z,6.10
2018-11-26T23:43:09.873Z,6.00
2018-11-26T23:45:38.700Z,6.00
2018-11-26T23:48:07.584Z,6.00
2018-11-26T23:50:37.157Z,6.10
2018-11-26T23:53:07.166Z,6.00
2018-11-26T23:55:35.961Z,6.00
2018-11-26T23:58:04.905Z,6.00
